CheckWX is a tool to help pilots better visualize weather data.  It is not intended as a substitute for an official pre-flight weather briefing.

14:01:21 UTC

KGLE METAR
Gainesville Municipal Airport
Gainesville, Texas, USA
Current

26 mins ago

KGLE 211335Z AUTO 17008KT 10SM OVC017 24/22 A3009 RMK AO2 T02400221
Observed
Sep-21 @ 13:35 UTC
Wind
  • 170° at 8 KTS
Visibility
10 SM
Flight Rules
MVFR
Cloud Levels
  • Overcast at 1,700' AGL
Temperature
24°C / 75°F
Dewpoint
22°C / 72°F
Humidity
89%
Altimeter
30.09" Hg
Pressure
1018.92 hPa
Previous

46 mins ago

KGLE 211315Z AUTO 17006KT 10SM OVC017 24/22 A3008 RMK AO2 T02370220
Observed
Sep-21 @ 13:15 UTC
Wind
  • 170° at 6 KTS
Visibility
10 SM
Flight Rules
MVFR
Cloud Levels
  • Overcast at 1,700' AGL
Temperature
24°C / 75°F
Dewpoint
22°C / 72°F
Humidity
89%
Altimeter
30.08" Hg
Pressure
1018.62 hPa
Previous

1 hour ago

KGLE 211255Z AUTO 18007KT 10SM OVC017 24/22 A3007 RMK AO2 T02370218
Observed
Sep-21 @ 12:55 UTC
Wind
  • 180° at 7 KTS
Visibility
10 SM
Flight Rules
MVFR
Cloud Levels
  • Overcast at 1,700' AGL
Temperature
24°C / 75°F
Dewpoint
22°C / 72°F
Humidity
89%
Altimeter
30.07" Hg
Pressure
1018.32 hPa